Time;durP1;ratioP1;P1;durP2;ratioP2;P2;SDS_P1;SDS_P2;PMS_P1;PMS_P2;Temp;Humidity;BMP_temperature;BMP_pressure;BME280_temperature;BME280_humidity;BME280_pressure;Samples;Min_cycle;Max_cycle;Signal;HPM_P1;HPM_P2
2022/07/04 00:03:44;;;;;;;8.23;5.17;;;;;13.20;101569.00;;;;10426367;28;20198;-78
2022/07/04 00:08:46;;;;;;;11.40;5.80;;;;;13.10;101569.00;;;;10391781;28;20664;-77
2022/07/04 00:13:48;;;;;;;8.23;5.33;;;;;13.10;101577.00;;;;10407450;28;20280;-77
2022/07/04 00:18:50;;;;;;;8.97;4.97;;;;;13.00;101572.00;;;;10417713;28;20197;-78
2022/07/04 00:23:52;;;;;;;10.33;5.17;;;;;13.00;101572.00;;;;10447882;28;20272;-77
2022/07/04 00:28:54;;;;;;;9.90;4.93;;;;;13.00;101558.00;;;;10448234;28;20264;-77
2022/07/04 00:33:56;;;;;;;9.07;4.67;;;;;12.90;101551.00;;;;10464771;28;20209;-77
2022/07/04 00:38:58;;;;;;;12.03;5.07;;;;;12.90;101542.00;;;;10463164;28;20254;-77
2022/07/04 00:44:05;;;;;;;9.77;4.70;;;;;12.90;101546.00;;;;10462804;28;20220;-77
2022/07/04 00:49:16;;;;;;;7.33;4.13;;;;;12.80;101537.00;;;;10447065;28;20644;-77
2022/07/04 00:54:20;;;;;;;5.70;4.30;;;;;12.80;101532.00;;;;10461625;28;20256;-78
2022/07/04 00:59:22;;;;;;;6.50;3.90;;;;;12.80;101526.00;;;;10479234;28;20721;-77
2022/07/04 01:04:24;;;;;;;6.83;4.27;;;;;12.70;101532.00;;;;10456633;28;20221;-77
2022/07/04 01:09:26;;;;;;;7.77;3.93;;;;;12.70;101532.00;;;;10402295;28;20730;-77
2022/07/04 01:14:29;;;;;;;5.27;3.70;;;;;12.70;101519.00;;;;10434418;28;20252;-77
2022/07/04 01:19:30;;;;;;;8.50;4.13;;;;;12.60;101523.00;;;;10435209;28;20744;-77
2022/07/04 01:24:32;;;;;;;9.23;4.40;;;;;12.50;101515.00;;;;10476837;28;20201;-77
2022/07/04 01:29:34;;;;;;;9.27;4.57;;;;;12.50;101517.00;;;;10477024;28;20239;-78
2022/07/04 01:34:38;;;;;;;7.23;3.90;;;;;12.40;101517.00;;;;10443375;28;20284;-77
2022/07/04 01:39:45;;;;;;;8.27;4.63;;;;;12.20;101530.00;;;;10443332;28;20729;-77
2022/07/04 01:44:46;;;;;;;8.37;4.40;;;;;12.10;101519.00;;;;10459236;28;20201;-79
2022/07/04 01:49:49;;;;;;;11.13;4.00;;;;;12.10;101520.00;;;;10476229;28;20326;-78
2022/07/04 01:54:51;;;;;;;5.97;4.33;;;;;12.00;101521.00;;;;10476155;28;20225;-77
2022/07/04 02:05:15;;;;;;;5.10;3.50;;;;;12.00;101535.00;;;;10479390;28;20209;-77
2022/07/04 02:10:17;;;;;;;8.53;3.50;;;;;12.00;101536.00;;;;10442643;28;20205;-77
2022/07/04 02:15:20;;;;;;;9.17;3.43;;;;;12.10;101530.00;;;;10441720;28;20654;-77
2022/07/04 02:20:22;;;;;;;5.73;3.40;;;;;12.10;101530.00;;;;10474877;28;20258;-78
2022/07/04 02:25:24;;;;;;;6.27;3.23;;;;;12.20;101538.00;;;;10441085;28;20205;-77
2022/07/04 02:30:29;;;;;;;4.30;3.00;;;;;12.30;101541.00;;;;10475028;28;20200;-77
2022/07/04 02:35:31;;;;;;;4.33;2.83;;;;;12.30;101548.00;;;;10441186;28;20369;-78
2022/07/04 02:40:33;;;;;;;7.00;3.10;;;;;12.30;101550.00;;;;10441847;28;20245;-77
2022/07/04 02:45:35;;;;;;;3.13;2.63;;;;;12.30;101553.00;;;;10425334;28;20202;-77
2022/07/04 02:50:37;;;;;;;6.83;3.10;;;;;12.30;101552.00;;;;10457780;28;20284;-77
2022/07/04 02:55:39;;;;;;;3.83;2.43;;;;;12.30;101553.00;;;;10441052;28;20197;-77
2022/07/04 03:00:41;;;;;;;5.67;3.20;;;;;12.20;101564.00;;;;10429324;28;20623;-77
2022/07/04 03:05:43;;;;;;;6.03;3.10;;;;;12.20;101559.00;;;;10463896;28;20224;-77
2022/07/04 03:10:45;;;;;;;7.97;3.40;;;;;12.20;101570.00;;;;10465574;28;20197;-77
2022/07/04 03:15:47;;;;;;;7.87;4.17;;;;;12.20;101584.00;;;;10482043;28;20280;-78
2022/07/04 03:20:49;;;;;;;6.37;3.40;;;;;12.10;101583.00;;;;10483010;28;20293;-77
2022/07/04 03:25:51;;;;;;;9.40;3.97;;;;;12.10;101576.00;;;;10498503;28;20205;-78
2022/07/04 03:30:54;;;;;;;7.03;3.50;;;;;12.10;101585.00;;;;10480103;28;20182;-78
2022/07/04 03:35:56;;;;;;;5.87;3.23;;;;;12.10;101582.00;;;;10406894;28;20288;-78
2022/07/04 03:40:58;;;;;;;4.93;3.70;;;;;12.20;101575.00;;;;10422303;28;20657;-77
2022/07/04 03:45:59;;;;;;;9.77;3.63;;;;;12.20;101578.00;;;;10405403;28;20245;-78
2022/07/04 03:51:02;;;;;;;10.20;3.83;;;;;12.30;101578.00;;;;10439314;28;20304;-77
2022/07/04 03:56:04;;;;;;;10.03;3.57;;;;;12.30;101581.00;;;;10453027;28;20197;-78
2022/07/04 04:01:06;;;;;;;7.73;3.63;;;;;12.30;101597.00;;;;10445836;28;20253;-78
2022/07/04 04:06:10;;;;;;;5.10;3.40;;;;;12.40;101604.00;;;;10447213;28;20269;-77
2022/07/04 04:11:13;;;;;;;7.77;4.33;;;;;12.50;101606.00;;;;10444993;28;20214;-78
2022/07/04 04:16:15;;;;;;;8.37;4.17;;;;;12.60;101615.00;;;;10452673;28;20728;-77
2022/07/04 04:21:17;;;;;;;5.90;3.57;;;;;12.90;101612.00;;;;10389334;28;20692;-78
2022/07/04 04:26:19;;;;;;;7.90;3.87;;;;;13.20;101614.00;;;;10438779;28;20264;-78
2022/07/04 04:31:21;;;;;;;10.13;3.70;;;;;13.40;101601.00;;;;10421734;28;20459;-77
2022/07/04 04:36:23;;;;;;;8.13;3.27;;;;;13.50;101607.00;;;;10420251;28;20202;-78
2022/07/04 04:41:25;;;;;;;4.47;3.00;;;;;13.60;101605.00;;;;10420084;28;20198;-77
2022/07/04 04:46:27;;;;;;;7.93;3.93;;;;;13.70;101595.00;;;;10419848;28;20561;-77
2022/07/04 04:51:29;;;;;;;5.67;2.90;;;;;13.80;101595.00;;;;10419394;28;20249;-78
2022/07/04 04:56:32;;;;;;;6.87;2.50;;;;;14.00;101591.00;;;;10438566;28;20197;-77
2022/07/04 05:01:34;;;;;;;7.43;2.63;;;;;14.30;101593.00;;;;10436755;28;20276;-77
2022/07/04 05:06:43;;;;;;;6.30;3.17;;;;;14.70;101592.00;;;;10420573;28;20284;-78
2022/07/04 05:11:46;;;;;;;6.33;2.80;;;;;15.20;101598.00;;;;10435229;28;20222;-77
2022/07/04 05:16:48;;;;;;;6.00;2.47;;;;;15.80;101593.00;;;;10434857;28;20194;-77
2022/07/04 05:21:50;;;;;;;8.00;2.70;;;;;16.30;101588.00;;;;10433981;28;20297;-77
2022/07/04 05:26:53;;;;;;;5.93;2.43;;;;;16.80;101595.00;;;;10433530;28;20194;-78
2022/07/04 05:32:00;;;;;;;4.47;2.20;;;;;17.30;101588.00;;;;10418672;28;20225;-77
2022/07/04 05:37:03;;;;;;;5.40;1.90;;;;;17.80;101600.00;;;;10418934;28;20225;-77
2022/07/04 05:42:05;;;;;;;3.00;1.40;;;;;18.30;101592.00;;;;10435529;28;20202;-77
2022/07/04 05:47:07;;;;;;;8.05;1.83;;;;;18.90;101594.00;;;;10418762;28;20743;-78
2022/07/04 05:52:09;;;;;;;4.80;1.60;;;;;19.40;101594.00;;;;10418520;28;20436;-77
2022/07/04 05:57:11;;;;;;;3.45;1.38;;;;;19.90;101597.00;;;;10475876;28;20201;-78
2022/07/04 06:02:15;;;;;;;4.13;1.33;;;;;20.30;101602.00;;;;10459202;28;20216;-77
2022/07/04 06:07:17;;;;;;;5.43;1.55;;;;;20.70;101609.00;;;;10459466;28;20189;-77
2022/07/04 06:12:19;;;;;;;3.55;1.65;;;;;21.00;101608.00;;;;10475054;28;20300;-77
2022/07/04 06:17:21;;;;;;;3.85;1.45;;;;;21.40;101603.00;;;;10442259;28;20247;-77
2022/07/04 06:22:23;;;;;;;3.70;1.25;;;;;21.80;101613.00;;;;10444661;28;20197;-77
2022/07/04 06:27:28;;;;;;;3.83;1.17;;;;;22.10;101607.00;;;;10425927;28;20232;-77
2022/07/04 06:32:30;;;;;;;2.65;1.33;;;;;22.40;101605.00;;;;10444889;28;20241;-78
2022/07/04 06:37:32;;;;;;;5.72;1.77;;;;;22.70;101596.00;;;;10440217;28;20280;-77
2022/07/04 06:42:39;;;;;;;4.85;1.10;;;;;23.00;101600.00;;;;10439823;28;20249;-75
2022/07/04 06:47:41;;;;;;;2.72;1.05;;;;;23.50;101606.00;;;;10432922;28;20234;-74
2022/07/04 06:52:43;;;;;;;5.13;1.23;;;;;23.80;101606.00;;;;10456321;28;20317;-75
2022/07/04 06:57:45;;;;;;;5.90;1.20;;;;;24.10;101617.00;;;;10456193;28;20233;-75
2022/07/04 07:02:47;;;;;;;5.68;1.30;;;;;24.40;101591.00;;;;10423919;28;20198;-75
2022/07/04 07:07:49;;;;;;;4.03;1.27;;;;;24.90;101588.00;;;;10446483;28;20198;-75
2022/07/04 07:12:51;;;;;;;5.25;1.52;;;;;25.20;101592.00;;;;10455292;28;20205;-75
2022/07/04 07:17:53;;;;;;;5.22;1.38;;;;;25.30;101601.00;;;;10426711;28;20726;-76
2022/07/04 07:22:55;;;;;;;3.55;1.25;;;;;25.60;101595.00;;;;10458221;28;20870;-76
2022/07/04 07:27:57;;;;;;;2.78;1.13;;;;;25.70;101595.00;;;;10447270;28;20299;-76
2022/07/04 07:32:59;;;;;;;6.05;1.35;;;;;26.00;101594.00;;;;10445418;28;20218;-76
2022/07/04 07:38:01;;;;;;;3.90;1.08;;;;;26.40;101599.00;;;;10429647;28;20288;-75
2022/07/04 07:43:03;;;;;;;1.75;0.90;;;;;26.70;101606.00;;;;10472102;28;20205;-76
2022/07/04 07:48:06;;;;;;;3.15;0.98;;;;;26.80;101612.00;;;;10444344;28;20200;-76
2022/07/04 07:53:08;;;;;;;5.80;1.38;;;;;27.10;101609.00;;;;10462998;28;20654;-76
2022/07/04 07:58:10;;;;;;;5.10;0.98;;;;;27.40;101602.00;;;;10435010;28;20213;-76
2022/07/04 08:08:33;;;;;;;5.97;1.00;;;;;28.10;101601.00;;;;10441547;28;20232;-76
2022/07/04 08:13:36;;;;;;;1.23;0.75;;;;;28.40;101590.00;;;;10460955;28;20223;-76
2022/07/04 08:18:38;;;;;;;1.80;0.63;;;;;29.00;101582.00;;;;10460986;28;20263;-76
2022/07/04 08:23:40;;;;;;;2.30;0.80;;;;;29.10;101586.00;;;;10425127;28;20225;-76
2022/07/04 08:29:02;;;;;;;3.58;0.95;;;;;29.20;101590.00;;;;10455571;28;20644;-76
2022/07/04 08:34:05;;;;;;;4.13;1.00;;;;;29.40;101584.00;;;;10446004;28;20263;-76
2022/07/04 08:39:06;;;;;;;2.78;0.95;;;;;29.80;101589.00;;;;10462743;28;20205;-76
2022/07/04 08:44:10;;;;;;;1.45;0.80;;;;;29.90;101591.00;;;;10403227;28;20220;-76
2022/07/04 08:49:21;;;;;;;3.28;0.82;;;;;30.30;101596.00;;;;10423067;28;20209;-76
2022/07/04 08:59:49;;;;;;;1.63;0.60;;;;;30.70;101594.00;;;;10475059;28;20798;-77
2022/07/04 09:04:51;;;;;;;5.95;0.90;;;;;30.40;101593.00;;;;10426159;28;20240;-77
2022/07/04 09:09:54;;;;;;;3.25;1.23;;;;;30.10;101585.00;;;;10419793;28;20228;-77
2022/07/04 09:14:59;;;;;;;4.05;1.23;;;;;29.90;101588.00;;;;10435576;28;20213;-77
2022/07/04 09:20:23;;;;;;;4.03;1.23;;;;;30.80;101587.00;;;;10435271;28;20186;-77
2022/07/04 09:25:26;;;;;;;4.13;0.93;;;;;31.40;101581.00;;;;10440788;28;20189;-77
2022/07/04 09:30:28;;;;;;;3.30;1.25;;;;;31.40;101591.00;;;;10489162;28;20294;-77
2022/07/04 09:35:31;;;;;;;4.25;1.38;;;;;31.60;101585.00;;;;10473701;28;20360;-77
2022/07/04 09:45:58;;;;;;;3.20;1.20;;;;;32.40;101587.00;;;;10494511;28;20185;-77
2022/07/04 09:51:00;;;;;;;3.17;1.15;;;;;32.50;101577.00;;;;10458692;28;20781;-77
2022/07/04 09:56:02;;;;;;;4.30;1.30;;;;;32.60;101579.00;;;;10474571;28;20229;-76
2022/07/04 10:01:04;;;;;;;6.70;1.10;;;;;33.10;101589.00;;;;10439565;28;20302;-76
2022/07/04 10:06:15;;;;;;;3.85;1.05;;;;;33.30;101582.00;;;;10456671;28;20185;-76
2022/07/04 10:11:18;;;;;;;4.82;0.98;;;;;32.80;101580.00;;;;10442839;28;20924;-77
2022/07/04 10:16:21;;;;;;;1.98;1.05;;;;;32.50;101576.00;;;;10425345;28;20226;-76
2022/07/04 10:21:23;;;;;;;3.50;1.30;;;;;33.20;101573.00;;;;10383815;28;20572;-76
2022/07/04 10:26:28;;;;;;;4.63;1.30;;;;;33.30;101574.00;;;;10451743;28;20228;-76
2022/07/04 10:31:33;;;;;;;1.40;0.85;;;;;33.50;101565.00;;;;10409455;28;20233;-76
2022/07/04 10:36:35;;;;;;;3.13;1.05;;;;;30.90;101572.00;;;;10464458;28;20258;-76
2022/07/04 10:41:57;;;;;;;4.20;0.88;;;;;29.10;101563.00;;;;10411546;28;20289;-77
2022/07/04 10:46:59;;;;;;;2.05;0.80;;;;;31.00;101585.00;;;;10431217;28;20895;-76
2022/07/04 10:52:10;;;;;;;3.72;1.38;;;;;28.90;101571.00;;;;10431565;28;20569;-75
2022/07/04 10:57:14;;;;;;;2.17;1.00;;;;;29.90;101561.00;;;;10437588;28;20798;-76
2022/07/04 11:02:16;;;;;;;3.42;1.35;;;;;30.40;101552.00;;;;10425558;28;20233;-76
2022/07/04 11:07:37;;;;;;;3.70;1.02;;;;;31.00;101555.00;;;;10449554;28;20198;-76
2022/07/04 11:13:07;;;;;;;3.10;1.13;;;;;31.80;101554.00;;;;10436451;28;20224;-76
2022/07/04 11:18:12;;;;;;;2.95;1.00;;;;;32.30;101558.00;;;;10459914;28;20220;-75
2022/07/04 11:23:21;;;;;;;4.30;1.20;;;;;33.80;101547.00;;;;10459427;28;20193;-77
2022/07/04 11:28:29;;;;;;;3.95;1.10;;;;;31.20;101558.00;;;;10437010;28;20294;-76
2022/07/04 11:33:53;;;;;;;3.22;1.30;;;;;29.60;101540.00;;;;10462730;28;20221;-76
2022/07/04 11:39:04;;;;;;;3.88;1.00;;;;;30.50;101541.00;;;;10460814;28;20193;-76
2022/07/04 11:49:31;;;;;;;2.83;1.30;;;;;28.60;101543.00;;;;10479855;28;20197;-76
2022/07/04 11:54:33;;;;;;;2.95;1.23;;;;;29.20;101534.00;;;;10473157;28;20845;-76
2022/07/04 11:59:57;;;;;;;3.47;1.30;;;;;28.60;101538.00;;;;10440274;28;20213;-76
2022/07/04 12:05:01;;;;;;;2.45;1.25;;;;;30.90;101511.00;;;;10461223;28;20209;-76
2022/07/04 12:10:12;;;;;;;5.97;1.23;;;;;32.90;101519.00;;;;10462771;28;20560;-76
2022/07/04 12:15:14;;;;;;;2.67;1.23;;;;;33.90;101517.00;;;;10439089;28;20217;-76
2022/07/04 12:20:17;;;;;;;3.80;1.20;;;;;34.50;101515.00;;;;10408569;28;20190;-76
2022/07/04 12:25:28;;;;;;;6.18;1.33;;;;;34.50;101509.00;;;;10427524;28;20210;-76
2022/07/04 12:30:39;;;;;;;5.15;1.08;;;;;34.30;101503.00;;;;10419631;28;20305;-76
2022/07/04 12:35:49;;;;;;;4.28;1.40;;;;;34.70;101495.00;;;;10442803;28;20271;-77
2022/07/04 12:40:57;;;;;;;3.92;1.20;;;;;35.10;101490.00;;;;10428670;28;20197;-76
2022/07/04 12:45:59;;;;;;;5.68;1.75;;;;;33.20;101491.00;;;;10446859;28;20201;-76
2022/07/04 12:51:19;;;;;;;5.43;1.45;;;;;34.00;101491.00;;;;10416879;28;20588;-76
2022/07/04 12:56:32;;;;;;;4.80;1.35;;;;;34.10;101497.00;;;;10452774;28;20221;-76
2022/07/04 13:01:35;;;;;;;2.92;1.10;;;;;34.30;101487.00;;;;10453389;28;20673;-76
2022/07/04 13:06:38;;;;;;;1.60;1.05;;;;;34.80;101491.00;;;;10418046;28;20186;-76
2022/07/04 13:17:01;;;;;;;3.38;1.13;;;;;35.00;101488.00;;;;10433877;28;20276;-76
2022/07/04 13:22:03;;;;;;;2.53;0.90;;;;;34.30;101473.00;;;;10417115;28;20248;-76
2022/07/04 13:27:06;;;;;;;3.35;1.10;;;;;32.90;101482.00;;;;10432561;28;20661;-76
2022/07/04 13:32:08;;;;;;;3.15;1.35;;;;;29.90;101483.00;;;;10411503;28;20198;-76
2022/07/04 13:37:15;;;;;;;3.90;1.40;;;;;28.70;101478.00;;;;10457142;28;20197;-75
2022/07/04 13:42:56;;;;;;;2.70;1.13;;;;;28.90;101479.00;;;;10441166;28;20251;-76
2022/07/04 13:47:40;;;;;;;3.67;1.00;;;;;29.40;101480.00;;;;10452944;28;20205;-75
2022/07/04 13:52:43;;;;;;;4.25;1.60;;;;;29.50;101484.00;;;;10421219;28;20692;-75
2022/07/04 13:57:45;;;;;;;1.65;0.80;;;;;29.50;101476.00;;;;10425755;28;20221;-76
2022/07/04 14:02:50;;;;;;;6.55;1.50;;;;;28.20;101473.00;;;;10424109;28;20202;-75
2022/07/04 14:07:52;;;;;;;3.33;1.30;;;;;28.90;101470.00;;;;10471969;28;20288;-75
2022/07/04 14:12:54;;;;;;;4.15;1.60;;;;;29.80;101466.00;;;;10432276;28;20698;-76
2022/07/04 14:17:56;;;;;;;3.78;1.60;;;;;31.10;101468.00;;;;10455524;28;20644;-76
2022/07/04 14:22:58;;;;;;;4.90;1.67;;;;;32.90;101466.00;;;;10452781;28;20190;-76
2022/07/04 14:28:00;;;;;;;4.55;1.30;;;;;35.50;101459.00;;;;10455554;28;20201;-75
2022/07/04 14:33:03;;;;;;;2.20;1.20;;;;;35.50;101474.00;;;;10455711;28;20221;-75
2022/07/04 14:38:05;;;;;;;3.33;1.20;;;;;35.10;101445.00;;;;10438983;28;20263;-76
2022/07/04 14:43:07;;;;;;;2.80;1.17;;;;;35.30;101464.00;;;;10472539;28;20833;-76
2022/07/04 14:48:09;;;;;;;5.20;1.52;;;;;36.30;101443.00;;;;10471991;28;20670;-76
2022/07/04 14:53:11;;;;;;;2.78;1.20;;;;;35.40;101439.00;;;;10466980;28;20248;-75
2022/07/04 14:58:13;;;;;;;4.22;1.27;;;;;33.50;101443.00;;;;10435859;28;20217;-75
2022/07/04 15:03:16;;;;;;;5.72;1.10;;;;;35.00;101442.00;;;;10433326;28;20208;-75
2022/07/04 15:08:19;;;;;;;1.88;1.00;;;;;33.00;101442.00;;;;10454194;28;20204;-75
2022/07/04 15:13:21;;;;;;;1.63;1.25;;;;;31.30;101421.00;;;;10470872;28;20741;-76
2022/07/04 15:18:22;;;;;;;2.22;1.20;;;;;30.70;101425.00;;;;10425927;28;20247;-75
2022/07/04 15:28:45;;;;;;;3.25;1.50;;;;;32.00;101424.00;;;;10454450;28;20215;-75
2022/07/04 15:33:47;;;;;;;3.95;1.30;;;;;30.80;101434.00;;;;10489064;28;20210;-76
2022/07/04 15:38:49;;;;;;;3.40;1.25;;;;;30.20;101428.00;;;;10470619;28;20656;-74
2022/07/04 15:43:51;;;;;;;3.15;0.98;;;;;30.40;101423.00;;;;10453954;28;20674;-75
2022/07/04 15:48:54;;;;;;;2.83;1.20;;;;;29.70;101420.00;;;;10436807;28;20206;-75
2022/07/04 15:53:56;;;;;;;1.45;1.00;;;;;28.70;101414.00;;;;10453578;28;20218;-75
2022/07/04 15:58:58;;;;;;;1.50;0.95;;;;;28.50;101400.00;;;;10453612;28;20210;-75
2022/07/04 16:04:00;;;;;;;4.72;1.38;;;;;28.60;101396.00;;;;10412652;28;20200;-75
2022/07/04 16:09:04;;;;;;;1.73;1.10;;;;;28.40;101391.00;;;;10465640;28;20652;-76
2022/07/04 16:14:06;;;;;;;1.98;1.40;;;;;27.80;101378.00;;;;10458501;28;20235;-76
2022/07/04 16:19:08;;;;;;;2.80;1.35;;;;;27.40;101382.00;;;;10477176;28;20189;-76
2022/07/04 16:24:13;;;;;;;7.35;1.42;;;;;27.10;101378.00;;;;10461431;28;20198;-76
2022/07/04 16:29:15;;;;;;;3.92;1.38;;;;;26.70;101380.00;;;;10476038;28;20276;-76
2022/07/04 16:34:17;;;;;;;2.35;1.27;;;;;26.40;101378.00;;;;10471491;28;20251;-76
2022/07/04 16:39:19;;;;;;;3.67;1.45;;;;;26.10;101376.00;;;;10494620;28;20254;-76
2022/07/04 16:44:21;;;;;;;1.67;1.00;;;;;25.80;101381.00;;;;10444456;28;20201;-76
2022/07/04 16:49:23;;;;;;;1.90;1.05;;;;;25.50;101378.00;;;;10476550;28;20594;-76
2022/07/04 16:54:43;;;;;;;3.00;1.23;;;;;25.40;101373.00;;;;10470682;28;20741;-76
2022/07/04 16:59:45;;;;;;;3.53;1.40;;;;;25.30;101381.00;;;;10417992;28;20247;-76
2022/07/04 17:04:47;;;;;;;3.05;1.60;;;;;25.30;101382.00;;;;10404096;28;20216;-76
2022/07/04 17:09:49;;;;;;;2.72;1.23;;;;;24.90;101382.00;;;;10434580;28;20668;-75
2022/07/04 17:14:51;;;;;;;4.90;1.20;;;;;24.80;101384.00;;;;10417807;28;20224;-76
2022/07/04 17:19:54;;;;;;;2.53;1.23;;;;;24.70;101389.00;;;;10416733;28;20198;-76
2022/07/04 17:24:56;;;;;;;3.33;1.40;;;;;24.70;101389.00;;;;10434069;28;20194;-76
2022/07/04 17:29:58;;;;;;;2.75;1.67;;;;;24.50;101378.00;;;;10433173;28;20277;-76
2022/07/04 17:35:00;;;;;;;4.93;2.22;;;;;24.00;101390.00;;;;10452146;28;20757;-76
2022/07/04 17:40:03;;;;;;;2.45;1.70;;;;;23.90;101393.00;;;;10475897;28;20252;-76
2022/07/04 17:45:06;;;;;;;2.05;1.45;;;;;24.00;101397.00;;;;10426318;28;20208;-76
2022/07/04 17:50:10;;;;;;;4.80;2.20;;;;;23.80;101404.00;;;;10491665;28;20648;-76
2022/07/04 17:55:13;;;;;;;7.35;1.90;;;;;23.40;101411.00;;;;10458273;28;20217;-76
2022/07/04 18:00:15;;;;;;;2.95;1.80;;;;;23.10;101419.00;;;;10475513;28;20263;-77
2022/07/04 18:05:17;;;;;;;2.53;1.70;;;;;22.90;101419.00;;;;10439362;28;20218;-76
2022/07/04 18:10:19;;;;;;;3.22;1.60;;;;;22.60;101428.00;;;;10417415;28;20194;-77
2022/07/04 18:15:21;;;;;;;2.58;2.10;;;;;22.40;101446.00;;;;10458626;28;20217;-76
2022/07/04 18:20:23;;;;;;;2.70;1.80;;;;;22.30;101447.00;;;;10458711;28;20205;-76
2022/07/04 18:25:25;;;;;;;2.00;1.80;;;;;22.10;101450.00;;;;10458127;28;20205;-76
2022/07/04 18:30:28;;;;;;;3.83;1.65;;;;;21.80;101459.00;;;;10473351;28;20255;-76
2022/07/04 18:35:34;;;;;;;2.78;1.80;;;;;21.50;101465.00;;;;10434284;28;20253;-76
2022/07/04 18:46:03;;;;;;;3.60;1.98;;;;;21.20;101481.00;;;;10405682;28;20289;-76
2022/07/04 18:51:05;;;;;;;2.78;2.17;;;;;21.20;101478.00;;;;10415194;28;20197;-77
2022/07/04 18:56:07;;;;;;;3.85;2.20;;;;;21.10;101484.00;;;;10432541;28;20221;-77
2022/07/04 19:01:09;;;;;;;5.13;2.15;;;;;21.00;101493.00;;;;10454072;28;20225;-76
2022/07/04 19:06:11;;;;;;;10.55;3.13;;;;;20.90;101493.00;;;;10404343;28;20652;-76
2022/07/04 19:11:13;;;;;;;3.88;2.28;;;;;20.70;101494.00;;;;10439832;28;20251;-76
2022/07/04 19:16:15;;;;;;;4.00;2.55;;;;;20.50;101503.00;;;;10472640;28;20576;-76
2022/07/04 19:21:21;;;;;;;3.72;2.22;;;;;20.30;101499.00;;;;10439164;28;20200;-76
2022/07/04 19:26:23;;;;;;;4.03;2.08;;;;;20.30;101512.00;;;;10440427;28;20194;-76
2022/07/04 19:31:25;;;;;;;4.28;2.15;;;;;20.20;101515.00;;;;10449360;28;20217;-76
2022/07/04 19:36:28;;;;;;;5.45;2.38;;;;;20.10;101531.00;;;;10422121;28;20233;-76
2022/07/04 19:41:30;;;;;;;3.78;2.17;;;;;19.80;101527.00;;;;10473729;28;20247;-76
2022/07/04 19:46:31;;;;;;;2.45;2.25;;;;;19.50;101536.00;;;;10431336;28;20237;-76
2022/07/04 19:51:33;;;;;;;4.57;1.63;;;;;19.30;101540.00;;;;10438499;28;20240;-76
2022/07/04 19:56:35;;;;;;;4.10;2.13;;;;;19.10;101542.00;;;;10459019;28;20209;-76
2022/07/04 20:01:38;;;;;;;4.90;2.33;;;;;18.90;101556.00;;;;10440226;28;20245;-76
2022/07/04 20:06:40;;;;;;;6.35;2.00;;;;;18.70;101554.00;;;;10463295;28;20313;-76
2022/07/04 20:11:42;;;;;;;2.85;1.80;;;;;18.50;101555.00;;;;10480115;28;20197;-76
2022/07/04 20:16:45;;;;;;;3.05;1.90;;;;;18.40;101572.00;;;;10448672;28;20280;-75
2022/07/04 20:21:50;;;;;;;4.85;2.03;;;;;18.30;101581.00;;;;10455572;28;20194;-76
2022/07/04 20:26:52;;;;;;;2.00;1.73;;;;;18.10;101580.00;;;;10437926;28;20280;-77
2022/07/04 20:32:14;;;;;;;3.33;1.55;;;;;18.00;101584.00;;;;10435976;28;20220;-76
2022/07/04 20:37:16;;;;;;;2.25;1.40;;;;;17.90;101593.00;;;;10437485;28;20218;-77
2022/07/04 20:42:19;;;;;;;4.38;2.00;;;;;17.70;101606.00;;;;10420968;28;20700;-76
2022/07/04 20:47:21;;;;;;;6.35;1.80;;;;;17.50;101606.00;;;;10429894;28;20653;-77
2022/07/04 20:52:23;;;;;;;4.15;1.52;;;;;17.40;101603.00;;;;10461631;28;20853;-77
2022/07/04 20:57:25;;;;;;;4.72;1.77;;;;;17.30;101609.00;;;;10417382;28;20234;-78
2022/07/04 21:02:28;;;;;;;1.67;1.48;;;;;17.30;101625.00;;;;10452305;28;20276;-78
2022/07/04 21:07:30;;;;;;;2.42;1.30;;;;;17.20;101627.00;;;;10478261;28;20749;-77
2022/07/04 21:12:33;;;;;;;3.17;1.60;;;;;17.00;101634.00;;;;10478611;28;20223;-77
2022/07/04 21:17:35;;;;;;;3.17;1.70;;;;;16.80;101636.00;;;;10495276;28;20209;-77
2022/07/04 21:22:37;;;;;;;3.70;1.55;;;;;16.70;101634.00;;;;10446000;28;20229;-76
2022/07/04 21:27:39;;;;;;;3.55;1.48;;;;;16.60;101634.00;;;;10462136;28;20212;-77
2022/07/04 21:32:41;;;;;;;2.22;1.40;;;;;16.40;101638.00;;;;10445250;28;20293;-77
2022/07/04 21:37:43;;;;;;;4.70;1.63;;;;;16.30;101635.00;;;;10419212;28;20284;-76
2022/07/04 21:42:45;;;;;;;3.43;1.40;;;;;16.20;101645.00;;;;10419581;28;20194;-76
2022/07/04 21:47:47;;;;;;;2.53;1.60;;;;;16.10;101649.00;;;;10420302;28;20204;-77
2022/07/04 21:52:49;;;;;;;5.53;1.80;;;;;16.00;101637.00;;;;10436866;28;20264;-77
2022/07/04 21:57:51;;;;;;;2.13;1.90;;;;;15.80;101658.00;;;;10429698;28;20226;-77
2022/07/04 22:02:53;;;;;;;3.30;1.93;;;;;15.70;101659.00;;;;10449617;28;20206;-76
2022/07/04 22:07:55;;;;;;;3.53;2.00;;;;;15.50;101658.00;;;;10435472;28;20252;-77
2022/07/04 22:12:58;;;;;;;4.13;2.20;;;;;15.40;101662.00;;;;10434773;28;20216;-77
2022/07/04 22:17:59;;;;;;;4.93;1.80;;;;;15.30;101667.00;;;;10475889;28;20891;-77
2022/07/04 22:23:02;;;;;;;3.70;1.87;;;;;15.20;101666.00;;;;10491438;28;20267;-76
2022/07/04 22:28:04;;;;;;;5.20;2.20;;;;;15.10;101670.00;;;;10458745;28;20277;-77
2022/07/04 22:33:06;;;;;;;4.43;2.70;;;;;15.00;101661.00;;;;10454244;28;20210;-77
2022/07/04 22:38:08;;;;;;;6.87;2.20;;;;;14.90;101670.00;;;;10430916;28;20233;-77
2022/07/04 22:43:10;;;;;;;6.07;2.57;;;;;14.80;101670.00;;;;10458572;28;20189;-76
2022/07/04 22:48:12;;;;;;;3.13;2.83;;;;;14.70;101663.00;;;;10475224;28;20267;-76
2022/07/04 22:54:50;;;;;;;2.97;2.20;;;;;14.60;101669.00;;;;10458698;28;20266;-77
2022/07/04 22:58:37;;;;;;;4.80;2.17;;;;;14.50;101680.00;;;;10477588;28;20266;-77
2022/07/04 23:03:39;;;;;;;3.97;2.53;;;;;14.50;101675.00;;;;10442438;28;20210;-77
2022/07/04 23:08:41;;;;;;;2.47;2.07;;;;;14.40;101682.00;;;;10433996;28;20863;-76
2022/07/04 23:13:43;;;;;;;3.87;3.13;;;;;14.30;101686.00;;;;10416522;28;20200;-77
2022/07/04 23:18:45;;;;;;;4.37;2.70;;;;;14.30;101690.00;;;;10422216;28;20202;-76
2022/07/04 23:23:47;;;;;;;7.43;3.20;;;;;14.20;101683.00;;;;10482899;28;20221;-77
2022/07/04 23:28:49;;;;;;;7.80;3.13;;;;;14.10;101686.00;;;;10482485;28;20188;-77
2022/07/04 23:33:51;;;;;;;7.73;3.03;;;;;14.00;101681.00;;;;10486376;28;20208;-76
2022/07/04 23:38:53;;;;;;;4.10;2.93;;;;;14.00;101676.00;;;;10466089;28;20224;-77
2022/07/04 23:43:55;;;;;;;4.83;3.33;;;;;13.90;101682.00;;;;10482311;28;20548;-77
2022/07/04 23:48:57;;;;;;;5.43;3.60;;;;;13.90;101674.00;;;;10449788;28;20200;-77
2022/07/04 23:53:59;;;;;;;5.70;3.50;;;;;13.80;101677.00;;;;10432030;28;20707;-77
2022/07/04 23:59:01;;;;;;;6.00;4.30;;;;;13.70;101665.00;;;;10448371;28;20684;-76
